sensor_id;sensor_type;location;lat;lon;timestamp;temperature;humidity
40960;DHT22;27842;52.272;8.052;2023-11-21T05:24:57;8.80;99.90
40960;DHT22;27842;52.272;8.052;2023-11-21T05:27:24;8.80;99.90
40960;DHT22;27842;52.272;8.052;2023-11-21T05:29:50;8.80;99.90
40960;DHT22;27842;52.272;8.052;2023-11-21T05:32:16;8.80;99.90
40960;DHT22;27842;52.272;8.052;2023-11-21T05:34:42;8.80;99.90
40960;DHT22;27842;52.272;8.052;2023-11-21T05:37:08;8.80;99.90
40960;DHT22;27842;52.272;8.052;2023-11-21T05:39:34;8.80;99.90
40960;DHT22;27842;52.272;8.052;2023-11-21T05:41:59;8.70;99.90
40960;DHT22;27842;52.272;8.052;2023-11-21T05:44:25;8.70;99.90
40960;DHT22;27842;52.272;8.052;2023-11-21T05:46:51;8.80;99.90
40960;DHT22;27842;52.272;8.052;2023-11-21T05:49:16;8.80;99.90
40960;DHT22;27842;52.272;8.052;2023-11-21T05:51:42;8.80;99.90
40960;DHT22;27842;52.272;8.052;2023-11-21T05:54:08;8.80;99.90
40960;DHT22;27842;52.272;8.052;2023-11-21T05:56:34;8.80;99.90
40960;DHT22;27842;52.272;8.052;2023-11-21T05:58:59;8.80;99.90
40960;DHT22;27842;52.272;8.052;2023-11-21T06:01:25;8.80;99.90
40960;DHT22;27842;52.272;8.052;2023-11-21T06:03:54;8.70;99.90
40960;DHT22;27842;52.272;8.052;2023-11-21T06:06:20;8.80;99.90
40960;DHT22;27842;52.272;8.052;2023-11-21T06:08:50;8.80;99.90
40960;DHT22;27842;52.272;8.052;2023-11-21T06:11:16;8.90;99.90
40960;DHT22;27842;52.272;8.052;2023-11-21T06:13:42;8.90;99.90
40960;DHT22;27842;52.272;8.052;2023-11-21T06:16:08;8.90;99.90
40960;DHT22;27842;52.272;8.052;2023-11-21T06:18:33;8.90;99.90
40960;DHT22;27842;52.272;8.052;2023-11-21T06:21:00;8.90;99.90
40960;DHT22;27842;52.272;8.052;2023-11-21T06:23:26;8.90;99.90
40960;DHT22;27842;52.272;8.052;2023-11-21T06:25:52;8.90;99.90
40960;DHT22;27842;52.272;8.052;2023-11-21T06:28:18;8.90;99.90
40960;DHT22;27842;52.272;8.052;2023-11-21T06:30:44;8.90;99.90
40960;DHT22;27842;52.272;8.052;2023-11-21T06:33:12;8.90;99.90
40960;DHT22;27842;52.272;8.052;2023-11-21T06:35:38;8.90;99.90
40960;DHT22;27842;52.272;8.052;2023-11-21T06:38:05;8.80;99.90
40960;DHT22;27842;52.272;8.052;2023-11-21T06:40:30;8.80;99.90
40960;DHT22;27842;52.272;8.052;2023-11-21T06:42:59;8.80;99.90
40960;DHT22;27842;52.272;8.052;2023-11-21T06:45:24;8.80;99.90
40960;DHT22;27842;52.272;8.052;2023-11-21T06:47:50;8.80;99.90
40960;DHT22;27842;52.272;8.052;2023-11-21T06:50:16;8.80;99.90
40960;DHT22;27842;52.272;8.052;2023-11-21T06:52:42;8.80;99.90
40960;DHT22;27842;52.272;8.052;2023-11-21T06:55:08;8.80;99.90
40960;DHT22;27842;52.272;8.052;2023-11-21T06:57:35;8.80;99.90
40960;DHT22;27842;52.272;8.052;2023-11-21T07:00:01;8.80;99.90
40960;DHT22;27842;52.272;8.052;2023-11-21T07:02:26;8.80;99.90
40960;DHT22;27842;52.272;8.052;2023-11-21T07:04:54;8.80;99.90
40960;DHT22;27842;52.272;8.052;2023-11-21T07:07:19;8.80;99.90
40960;DHT22;27842;52.272;8.052;2023-11-21T07:09:45;8.80;99.90
40960;DHT22;27842;52.272;8.052;2023-11-21T07:12:10;8.80;99.90
40960;DHT22;27842;52.272;8.052;2023-11-21T07:14:37;8.80;99.90
40960;DHT22;27842;52.272;8.052;2023-11-21T07:17:04;8.80;99.90
40960;DHT22;27842;52.272;8.052;2023-11-21T07:19:30;8.80;99.90
40960;DHT22;27842;52.272;8.052;2023-11-21T07:21:56;8.80;99.90
40960;DHT22;27842;52.272;8.052;2023-11-21T07:24:22;8.80;99.90
40960;DHT22;27842;52.272;8.052;2023-11-21T07:26:50;8.80;99.90
40960;DHT22;27842;52.272;8.052;2023-11-21T07:29:16;8.80;99.90
40960;DHT22;27842;52.272;8.052;2023-11-21T07:31:42;8.80;99.90
40960;DHT22;27842;52.272;8.052;2023-11-21T07:34:08;8.80;99.90
40960;DHT22;27842;52.272;8.052;2023-11-21T07:36:34;8.80;99.90
40960;DHT22;27842;52.272;8.052;2023-11-21T07:38:59;8.80;99.90
40960;DHT22;27842;52.272;8.052;2023-11-21T07:41:25;8.80;99.90
40960;DHT22;27842;52.272;8.052;2023-11-21T07:43:51;8.80;99.90
40960;DHT22;27842;52.272;8.052;2023-11-21T07:46:17;8.80;99.90
40960;DHT22;27842;52.272;8.052;2023-11-21T07:48:43;8.80;99.90
40960;DHT22;27842;52.272;8.052;2023-11-21T07:51:10;8.80;99.90
40960;DHT22;27842;52.272;8.052;2023-11-21T07:53:37;8.70;99.90
40960;DHT22;27842;52.272;8.052;2023-11-21T07:56:07;8.80;99.90
40960;DHT22;27842;52.272;8.052;2023-11-21T07:58:34;8.80;99.90
40960;DHT22;27842;52.272;8.052;2023-11-21T08:01:01;8.70;99.90
40960;DHT22;27842;52.272;8.052;2023-11-21T08:03:27;8.80;99.90
40960;DHT22;27842;52.272;8.052;2023-11-21T08:05:54;8.80;99.90
40960;DHT22;27842;52.272;8.052;2023-11-21T08:08:20;8.80;99.90
40960;DHT22;27842;52.272;8.052;2023-11-21T08:10:46;8.80;99.90
40960;DHT22;27842;52.272;8.052;2023-11-21T08:13:27;8.80;99.90
40960;DHT22;27842;52.272;8.052;2023-11-21T08:15:57;8.80;99.90
40960;DHT22;27842;52.272;8.052;2023-11-21T08:18:37;8.80;99.90
40960;DHT22;27842;52.272;8.052;2023-11-21T08:21:03;8.80;99.90
40960;DHT22;27842;52.272;8.052;2023-11-21T08:23:30;8.80;99.90
40960;DHT22;27842;52.272;8.052;2023-11-21T08:25:56;8.80;99.90
40960;DHT22;27842;52.272;8.052;2023-11-21T08:28:22;8.80;99.90
40960;DHT22;27842;52.272;8.052;2023-11-21T08:30:51;8.80;99.90
40960;DHT22;27842;52.272;8.052;2023-11-21T08:33:17;8.80;99.90
40960;DHT22;27842;52.272;8.052;2023-11-21T08:35:46;8.80;99.90
40960;DHT22;27842;52.272;8.052;2023-11-21T08:38:12;8.80;99.90
40960;DHT22;27842;52.272;8.052;2023-11-21T08:40:38;8.80;99.90
40960;DHT22;27842;52.272;8.052;2023-11-21T08:43:04;8.80;99.90
40960;DHT22;27842;52.272;8.052;2023-11-21T08:45:30;8.90;99.90
40960;DHT22;27842;52.272;8.052;2023-11-21T08:47:56;8.90;99.90
40960;DHT22;27842;52.272;8.052;2023-11-21T08:50:22;8.90;99.90
40960;DHT22;27842;52.272;8.052;2023-11-21T08:52:48;8.90;99.90
40960;DHT22;27842;52.272;8.052;2023-11-21T08:55:14;8.90;99.90
40960;DHT22;27842;52.272;8.052;2023-11-21T08:57:41;8.90;99.90
40960;DHT22;27842;52.272;8.052;2023-11-21T09:00:09;8.90;99.90
40960;DHT22;27842;52.272;8.052;2023-11-21T09:02:41;8.90;99.90
40960;DHT22;27842;52.272;8.052;2023-11-21T09:05:10;8.90;99.90
40960;DHT22;27842;52.272;8.052;2023-11-21T09:07:37;8.90;99.90
40960;DHT22;27842;52.272;8.052;2023-11-21T09:10:04;8.90;99.90
40960;DHT22;27842;52.272;8.052;2023-11-21T09:12:31;8.90;99.90
40960;DHT22;27842;52.272;8.052;2023-11-21T09:14:58;8.90;99.90
40960;DHT22;27842;52.272;8.052;2023-11-21T09:17:23;8.90;99.90
40960;DHT22;27842;52.272;8.052;2023-11-21T09:19:49;8.90;99.90
40960;DHT22;27842;52.272;8.052;2023-11-21T09:22:17;8.90;99.90
40960;DHT22;27842;52.272;8.052;2023-11-21T09:24:43;8.90;99.90
40960;DHT22;27842;52.272;8.052;2023-11-21T09:27:08;8.90;99.90
40960;DHT22;27842;52.272;8.052;2023-11-21T09:29:35;9.00;99.90
40960;DHT22;27842;52.272;8.052;2023-11-21T09:32:01;9.00;99.90
40960;DHT22;27842;52.272;8.052;2023-11-21T09:34:27;8.90;99.90
40960;DHT22;27842;52.272;8.052;2023-11-21T09:36:52;9.00;99.90
40960;DHT22;27842;52.272;8.052;2023-11-21T09:39:19;9.00;99.90
40960;DHT22;27842;52.272;8.052;2023-11-21T09:41:52;9.00;99.90
40960;DHT22;27842;52.272;8.052;2023-11-21T09:44:35;9.00;99.90
40960;DHT22;27842;52.272;8.052;2023-11-21T09:47:04;8.90;99.90
40960;DHT22;27842;52.272;8.052;2023-11-21T09:49:36;8.90;99.90
40960;DHT22;27842;52.272;8.052;2023-11-21T09:52:02;8.90;99.90
40960;DHT22;27842;52.272;8.052;2023-11-21T09:54:30;8.90;99.90
40960;DHT22;27842;52.272;8.052;2023-11-21T10:34:15;8.80;99.90
40960;DHT22;27842;52.272;8.052;2023-11-21T11:38:09;8.70;99.90
40960;DHT22;27842;52.272;8.052;2023-11-21T11:40:45;8.70;99.90
40960;DHT22;27842;52.272;8.052;2023-11-21T11:43:11;8.70;99.90
40960;DHT22;27842;52.272;8.052;2023-11-21T11:45:37;8.70;99.90
40960;DHT22;27842;52.272;8.052;2023-11-21T11:48:11;8.70;99.90
40960;DHT22;27842;52.272;8.052;2023-11-21T11:50:53;8.70;99.90
40960;DHT22;27842;52.272;8.052;2023-11-21T11:53:26;8.80;99.90
40960;DHT22;27842;52.272;8.052;2023-11-21T11:59:00;8.70;99.90
40960;DHT22;27842;52.272;8.052;2023-11-21T12:01:28;8.80;99.90
40960;DHT22;27842;52.272;8.052;2023-11-21T12:06:48;8.70;99.90
40960;DHT22;27842;52.272;8.052;2023-11-21T12:09:23;8.70;99.90
40960;DHT22;27842;52.272;8.052;2023-11-21T12:11:52;8.70;99.90
40960;DHT22;27842;52.272;8.052;2023-11-21T12:14:18;8.70;99.90
40960;DHT22;27842;52.272;8.052;2023-11-21T12:16:44;8.70;99.90
40960;DHT22;27842;52.272;8.052;2023-11-21T12:19:11;8.60;99.90
40960;DHT22;27842;52.272;8.052;2023-11-21T12:21:37;8.60;99.90
40960;DHT22;27842;52.272;8.052;2023-11-21T12:24:03;8.70;99.90
40960;DHT22;27842;52.272;8.052;2023-11-21T12:26:29;8.70;99.90
40960;DHT22;27842;52.272;8.052;2023-11-21T12:28:55;8.70;99.90
40960;DHT22;27842;52.272;8.052;2023-11-21T12:31:23;8.60;99.90
40960;DHT22;27842;52.272;8.052;2023-11-21T12:33:49;8.70;99.90
40960;DHT22;27842;52.272;8.052;2023-11-21T12:36:15;8.70;99.90
40960;DHT22;27842;52.272;8.052;2023-11-21T12:38:42;8.70;99.90
40960;DHT22;27842;52.272;8.052;2023-11-21T12:41:11;8.60;99.90
40960;DHT22;27842;52.272;8.052;2023-11-21T12:43:37;8.60;99.90
40960;DHT22;27842;52.272;8.052;2023-11-21T12:46:06;8.60;99.90
40960;DHT22;27842;52.272;8.052;2023-11-21T12:48:32;8.70;99.90
40960;DHT22;27842;52.272;8.052;2023-11-21T12:50:58;8.70;99.90
40960;DHT22;27842;52.272;8.052;2023-11-21T12:53:25;8.70;99.90
40960;DHT22;27842;52.272;8.052;2023-11-21T12:55:51;8.60;99.90
40960;DHT22;27842;52.272;8.052;2023-11-21T12:58:17;8.70;99.90
40960;DHT22;27842;52.272;8.052;2023-11-21T13:00:47;8.70;99.90
40960;DHT22;27842;52.272;8.052;2023-11-21T13:03:14;8.70;99.90
40960;DHT22;27842;52.272;8.052;2023-11-21T13:05:48;8.70;99.90
40960;DHT22;27842;52.272;8.052;2023-11-21T13:08:19;8.70;99.90
40960;DHT22;27842;52.272;8.052;2023-11-21T13:10:51;8.70;99.90
40960;DHT22;27842;52.272;8.052;2023-11-21T13:13:17;8.70;99.90
40960;DHT22;27842;52.272;8.052;2023-11-21T13:15:50;8.70;99.90
40960;DHT22;27842;52.272;8.052;2023-11-21T13:18:25;8.70;99.90
40960;DHT22;27842;52.272;8.052;2023-11-21T13:20:53;8.80;99.90
40960;DHT22;27842;52.272;8.052;2023-11-21T13:23:20;8.70;99.90
40960;DHT22;27842;52.272;8.052;2023-11-21T13:25:46;8.70;99.90
40960;DHT22;27842;52.272;8.052;2023-11-21T13:28:13;8.70;99.90
40960;DHT22;27842;52.272;8.052;2023-11-21T13:30:41;8.80;99.90
40960;DHT22;27842;52.272;8.052;2023-11-21T13:33:07;8.80;99.90
40960;DHT22;27842;52.272;8.052;2023-11-21T13:35:35;8.70;99.90
40960;DHT22;27842;52.272;8.052;2023-11-21T13:38:11;8.70;99.90
40960;DHT22;27842;52.272;8.052;2023-11-21T13:40:38;8.80;99.90
40960;DHT22;27842;52.272;8.052;2023-11-21T13:43:13;8.80;99.90
40960;DHT22;27842;52.272;8.052;2023-11-21T13:45:43;8.80;99.90
40960;DHT22;27842;52.272;8.052;2023-11-21T13:48:10;8.80;99.90
40960;DHT22;27842;52.272;8.052;2023-11-21T13:50:43;8.70;99.90
40960;DHT22;27842;52.272;8.052;2023-11-21T13:53:14;8.70;99.90
40960;DHT22;27842;52.272;8.052;2023-11-21T13:55:49;8.70;99.90
40960;DHT22;27842;52.272;8.052;2023-11-21T13:58:16;8.70;99.90
40960;DHT22;27842;52.272;8.052;2023-11-21T14:00:47;8.60;99.90
40960;DHT22;27842;52.272;8.052;2023-11-21T14:03:17;8.70;99.90
40960;DHT22;27842;52.272;8.052;2023-11-21T14:05:49;8.70;99.90
40960;DHT22;27842;52.272;8.052;2023-11-21T14:08:22;8.70;99.90
40960;DHT22;27842;52.272;8.052;2023-11-21T14:10:50;8.70;99.90
40960;DHT22;27842;52.272;8.052;2023-11-21T14:13:21;8.70;99.90
40960;DHT22;27842;52.272;8.052;2023-11-21T14:15:49;8.60;99.90
40960;DHT22;27842;52.272;8.052;2023-11-21T14:18:32;8.60;99.90
40960;DHT22;27842;52.272;8.052;2023-11-21T14:21:06;8.60;99.90
40960;DHT22;27842;52.272;8.052;2023-11-21T14:23:34;8.60;99.90
40960;DHT22;27842;52.272;8.052;2023-11-21T14:26:01;8.60;99.90
40960;DHT22;27842;52.272;8.052;2023-11-21T14:28:27;8.60;99.90
40960;DHT22;27842;52.272;8.052;2023-11-21T14:30:52;8.60;99.90
40960;DHT22;27842;52.272;8.052;2023-11-21T14:33:18;8.60;99.90
40960;DHT22;27842;52.272;8.052;2023-11-21T14:35:44;8.60;99.90
40960;DHT22;27842;52.272;8.052;2023-11-21T14:38:10;8.60;99.90
40960;DHT22;27842;52.272;8.052;2023-11-21T14:40:36;8.60;99.90
40960;DHT22;27842;52.272;8.052;2023-11-21T14:43:03;8.60;99.90
40960;DHT22;27842;52.272;8.052;2023-11-21T14:45:32;8.60;99.90
40960;DHT22;27842;52.272;8.052;2023-11-21T14:47:58;8.50;99.90
40960;DHT22;27842;52.272;8.052;2023-11-21T14:50:30;8.50;99.90
40960;DHT22;27842;52.272;8.052;2023-11-21T14:53:11;8.50;99.90
40960;DHT22;27842;52.272;8.052;2023-11-21T14:55:39;8.50;99.90
40960;DHT22;27842;52.272;8.052;2023-11-21T14:58:17;8.50;99.90
40960;DHT22;27842;52.272;8.052;2023-11-21T15:00:56;8.50;99.90
40960;DHT22;27842;52.272;8.052;2023-11-21T15:03:24;8.50;99.90
40960;DHT22;27842;52.272;8.052;2023-11-21T15:05:56;8.50;99.90
40960;DHT22;27842;52.272;8.052;2023-11-21T15:08:22;8.50;99.90
40960;DHT22;27842;52.272;8.052;2023-11-21T15:10:57;8.50;99.90
40960;DHT22;27842;52.272;8.052;2023-11-21T15:13:23;8.40;99.90
40960;DHT22;27842;52.272;8.052;2023-11-21T15:15:51;8.40;99.90
40960;DHT22;27842;52.272;8.052;2023-11-21T15:18:19;8.30;99.90
40960;DHT22;27842;52.272;8.052;2023-11-21T15:20:45;8.40;99.90
40960;DHT22;27842;52.272;8.052;2023-11-21T15:23:11;8.40;99.90
40960;DHT22;27842;52.272;8.052;2023-11-21T15:25:38;8.30;99.90
40960;DHT22;27842;52.272;8.052;2023-11-21T15:28:04;8.30;99.90
40960;DHT22;27842;52.272;8.052;2023-11-21T15:30:31;8.30;99.90
40960;DHT22;27842;52.272;8.052;2023-11-21T15:33:00;8.30;99.90
40960;DHT22;27842;52.272;8.052;2023-11-21T15:35:26;8.30;99.90
40960;DHT22;27842;52.272;8.052;2023-11-21T15:37:53;8.30;99.90
40960;DHT22;27842;52.272;8.052;2023-11-21T15:40:19;8.30;99.90
40960;DHT22;27842;52.272;8.052;2023-11-21T15:42:45;8.20;99.90
40960;DHT22;27842;52.272;8.052;2023-11-21T15:45:11;8.30;99.90
40960;DHT22;27842;52.272;8.052;2023-11-21T15:47:42;8.30;99.90
40960;DHT22;27842;52.272;8.052;2023-11-21T15:50:08;8.20;99.90
40960;DHT22;27842;52.272;8.052;2023-11-21T15:52:36;8.20;99.90
40960;DHT22;27842;52.272;8.052;2023-11-21T15:55:01;8.30;99.90
40960;DHT22;27842;52.272;8.052;2023-11-21T15:57:27;8.20;99.90
40960;DHT22;27842;52.272;8.052;2023-11-21T15:59:53;8.30;99.90
40960;DHT22;27842;52.272;8.052;2023-11-21T16:02:18;8.30;99.90
40960;DHT22;27842;52.272;8.052;2023-11-21T16:04:44;8.30;99.90
40960;DHT22;27842;52.272;8.052;2023-11-21T16:07:10;8.30;99.90
40960;DHT22;27842;52.272;8.052;2023-11-21T16:09:36;8.30;99.90
40960;DHT22;27842;52.272;8.052;2023-11-21T16:12:05;8.30;99.90
40960;DHT22;27842;52.272;8.052;2023-11-21T16:14:35;8.20;99.90
40960;DHT22;27842;52.272;8.052;2023-11-21T16:17:07;8.30;99.90
40960;DHT22;27842;52.272;8.052;2023-11-21T16:19:34;8.30;99.90
40960;DHT22;27842;52.272;8.052;2023-11-21T16:22:00;8.20;99.90
40960;DHT22;27842;52.272;8.052;2023-11-21T16:24:26;8.20;99.90
40960;DHT22;27842;52.272;8.052;2023-11-21T16:26:56;8.30;99.90
40960;DHT22;27842;52.272;8.052;2023-11-21T16:29:22;8.30;99.90
40960;DHT22;27842;52.272;8.052;2023-11-21T16:31:48;8.30;99.90
40960;DHT22;27842;52.272;8.052;2023-11-21T16:34:18;8.30;99.90
40960;DHT22;27842;52.272;8.052;2023-11-21T16:36:44;8.20;99.90
40960;DHT22;27842;52.272;8.052;2023-11-21T16:39:14;8.30;99.90
40960;DHT22;27842;52.272;8.052;2023-11-21T16:41:42;8.30;99.90
40960;DHT22;27842;52.272;8.052;2023-11-21T16:44:17;8.30;99.90
40960;DHT22;27842;52.272;8.052;2023-11-21T16:46:50;8.30;99.90
40960;DHT22;27842;52.272;8.052;2023-11-21T16:49:19;8.20;99.90
40960;DHT22;27842;52.272;8.052;2023-11-21T16:51:45;8.20;99.90
40960;DHT22;27842;52.272;8.052;2023-11-21T16:54:11;8.20;99.90
40960;DHT22;27842;52.272;8.052;2023-11-21T16:56:37;8.20;99.90
40960;DHT22;27842;52.272;8.052;2023-11-21T16:59:03;8.20;99.90
40960;DHT22;27842;52.272;8.052;2023-11-21T17:01:29;8.20;99.90
40960;DHT22;27842;52.272;8.052;2023-11-21T17:03:56;8.20;99.90
40960;DHT22;27842;52.272;8.052;2023-11-21T17:06:26;8.20;99.90
40960;DHT22;27842;52.272;8.052;2023-11-21T17:08:55;8.20;99.90
40960;DHT22;27842;52.272;8.052;2023-11-21T17:11:21;8.20;99.90
40960;DHT22;27842;52.272;8.052;2023-11-21T17:13:46;8.20;99.90
40960;DHT22;27842;52.272;8.052;2023-11-21T17:16:12;8.10;99.90
40960;DHT22;27842;52.272;8.052;2023-11-21T17:18:38;8.10;99.90
40960;DHT22;27842;52.272;8.052;2023-11-21T17:21:04;8.10;99.90
40960;DHT22;27842;52.272;8.052;2023-11-21T17:23:31;8.20;99.90
40960;DHT22;27842;52.272;8.052;2023-11-21T17:25:57;8.10;99.90
40960;DHT22;27842;52.272;8.052;2023-11-21T17:28:22;8.10;99.90
40960;DHT22;27842;52.272;8.052;2023-11-21T17:30:48;8.10;99.90
40960;DHT22;27842;52.272;8.052;2023-11-21T17:33:14;8.10;99.90
40960;DHT22;27842;52.272;8.052;2023-11-21T17:35:43;8.10;99.90
40960;DHT22;27842;52.272;8.052;2023-11-21T17:38:09;8.00;99.90
40960;DHT22;27842;52.272;8.052;2023-11-21T17:40:38;8.00;99.90
40960;DHT22;27842;52.272;8.052;2023-11-21T17:43:04;8.10;99.90
40960;DHT22;27842;52.272;8.052;2023-11-21T17:45:30;8.10;99.90
40960;DHT22;27842;52.272;8.052;2023-11-21T20:00:46;7.50;99.90
40960;DHT22;27842;52.272;8.052;2023-11-21T20:03:12;7.60;99.90
40960;DHT22;27842;52.272;8.052;2023-11-21T20:05:38;7.60;99.90
40960;DHT22;27842;52.272;8.052;2023-11-21T20:08:04;7.50;99.90
40960;DHT22;27842;52.272;8.052;2023-11-21T20:10:30;7.60;99.90
40960;DHT22;27842;52.272;8.052;2023-11-21T20:12:55;7.50;99.90
40960;DHT22;27842;52.272;8.052;2023-11-21T20:15:24;7.60;99.90
40960;DHT22;27842;52.272;8.052;2023-11-21T20:17:51;7.60;99.90
40960;DHT22;27842;52.272;8.052;2023-11-21T20:20:17;7.50;99.90
40960;DHT22;27842;52.272;8.052;2023-11-21T20:22:43;7.60;99.90
40960;DHT22;27842;52.272;8.052;2023-11-21T20:25:12;7.50;99.90
40960;DHT22;27842;52.272;8.052;2023-11-21T20:27:42;7.40;99.90
40960;DHT22;27842;52.272;8.052;2023-11-21T20:30:08;7.40;99.90
40960;DHT22;27842;52.272;8.052;2023-11-21T20:32:35;7.40;99.90
40960;DHT22;27842;52.272;8.052;2023-11-21T20:35:02;7.30;99.90
40960;DHT22;27842;52.272;8.052;2023-11-21T20:37:27;7.30;99.90
40960;DHT22;27842;52.272;8.052;2023-11-21T20:39:53;7.30;99.90
40960;DHT22;27842;52.272;8.052;2023-11-21T20:42:18;7.20;99.90
40960;DHT22;27842;52.272;8.052;2023-11-21T20:44:44;7.20;99.90
40960;DHT22;27842;52.272;8.052;2023-11-21T20:47:10;7.20;99.90
40960;DHT22;27842;52.272;8.052;2023-11-21T20:49:35;7.20;99.90
40960;DHT22;27842;52.272;8.052;2023-11-21T20:52:01;7.20;99.90
40960;DHT22;27842;52.272;8.052;2023-11-21T20:54:27;7.20;99.90
40960;DHT22;27842;52.272;8.052;2023-11-21T20:56:53;7.20;99.90
40960;DHT22;27842;52.272;8.052;2023-11-21T20:59:18;7.20;99.90
40960;DHT22;27842;52.272;8.052;2023-11-21T21:01:44;7.20;99.90
40960;DHT22;27842;52.272;8.052;2023-11-21T21:04:15;7.20;99.90
40960;DHT22;27842;52.272;8.052;2023-11-21T21:06:43;7.20;99.90
40960;DHT22;27842;52.272;8.052;2023-11-21T21:09:09;7.20;99.90
40960;DHT22;27842;52.272;8.052;2023-11-21T21:11:35;7.20;99.90
40960;DHT22;27842;52.272;8.052;2023-11-21T21:14:01;7.20;99.90
40960;DHT22;27842;52.272;8.052;2023-11-21T21:16:26;7.30;99.90
40960;DHT22;27842;52.272;8.052;2023-11-21T21:18:56;7.20;99.90
40960;DHT22;27842;52.272;8.052;2023-11-21T21:21:22;7.20;99.90
40960;DHT22;27842;52.272;8.052;2023-11-21T21:23:52;7.20;99.90
40960;DHT22;27842;52.272;8.052;2023-11-21T21:26:20;7.20;99.90
40960;DHT22;27842;52.272;8.052;2023-11-21T21:28:49;7.20;99.90
40960;DHT22;27842;52.272;8.052;2023-11-21T21:31:14;7.20;99.90
40960;DHT22;27842;52.272;8.052;2023-11-21T21:33:40;7.20;99.90
40960;DHT22;27842;52.272;8.052;2023-11-21T21:36:10;7.20;99.90
40960;DHT22;27842;52.272;8.052;2023-11-21T21:38:35;7.20;99.90
40960;DHT22;27842;52.272;8.052;2023-11-21T21:41:02;7.20;99.90
40960;DHT22;27842;52.272;8.052;2023-11-21T21:43:27;7.10;99.90
40960;DHT22;27842;52.272;8.052;2023-11-21T21:45:53;7.10;99.90
40960;DHT22;27842;52.272;8.052;2023-11-21T21:48:19;7.10;99.90
40960;DHT22;27842;52.272;8.052;2023-11-21T21:50:45;7.10;99.90
40960;DHT22;27842;52.272;8.052;2023-11-21T21:53:10;7.10;99.90
40960;DHT22;27842;52.272;8.052;2023-11-21T21:55:39;7.20;99.90
40960;DHT22;27842;52.272;8.052;2023-11-21T21:58:05;7.10;99.90
40960;DHT22;27842;52.272;8.052;2023-11-21T22:00:32;7.20;99.90
40960;DHT22;27842;52.272;8.052;2023-11-21T22:02:58;7.20;99.90
40960;DHT22;27842;52.272;8.052;2023-11-21T22:05:24;7.10;99.90
40960;DHT22;27842;52.272;8.052;2023-11-21T22:07:50;7.10;99.90
40960;DHT22;27842;52.272;8.052;2023-11-21T22:10:15;7.10;99.90
40960;DHT22;27842;52.272;8.052;2023-11-21T22:12:41;7.20;99.90
40960;DHT22;27842;52.272;8.052;2023-11-21T22:15:07;7.20;99.90
40960;DHT22;27842;52.272;8.052;2023-11-21T22:17:35;7.20;99.90
40960;DHT22;27842;52.272;8.052;2023-11-21T22:20:01;7.20;99.90
40960;DHT22;27842;52.272;8.052;2023-11-21T22:22:27;7.20;99.90
40960;DHT22;27842;52.272;8.052;2023-11-21T22:24:53;7.20;99.90
40960;DHT22;27842;52.272;8.052;2023-11-21T22:27:19;7.20;99.90
40960;DHT22;27842;52.272;8.052;2023-11-21T22:29:45;7.10;99.90
40960;DHT22;27842;52.272;8.052;2023-11-21T22:32:11;7.10;99.90
40960;DHT22;27842;52.272;8.052;2023-11-21T22:34:36;7.10;99.90
40960;DHT22;27842;52.272;8.052;2023-11-21T22:37:02;7.10;99.90
40960;DHT22;27842;52.272;8.052;2023-11-21T22:39:28;7.10;99.90
40960;DHT22;27842;52.272;8.052;2023-11-21T22:41:53;7.10;99.90
40960;DHT22;27842;52.272;8.052;2023-11-21T22:44:21;7.10;99.90
40960;DHT22;27842;52.272;8.052;2023-11-21T22:46:46;7.10;99.90
40960;DHT22;27842;52.272;8.052;2023-11-21T22:49:12;7.10;99.90
40960;DHT22;27842;52.272;8.052;2023-11-21T22:51:39;7.10;99.90
40960;DHT22;27842;52.272;8.052;2023-11-21T22:54:05;7.00;99.90
40960;DHT22;27842;52.272;8.052;2023-11-21T22:56:31;7.00;99.90
40960;DHT22;27842;52.272;8.052;2023-11-21T22:58:57;7.00;99.90
40960;DHT22;27842;52.272;8.052;2023-11-21T23:01:24;7.00;99.90
40960;DHT22;27842;52.272;8.052;2023-11-21T23:03:50;7.00;99.90
40960;DHT22;27842;52.272;8.052;2023-11-21T23:06:21;6.90;99.90
40960;DHT22;27842;52.272;8.052;2023-11-21T23:08:47;6.90;99.90
40960;DHT22;27842;52.272;8.052;2023-11-21T23:11:13;6.90;99.90
40960;DHT22;27842;52.272;8.052;2023-11-21T23:13:40;6.80;99.90
40960;DHT22;27842;52.272;8.052;2023-11-21T23:16:06;6.80;99.90
40960;DHT22;27842;52.272;8.052;2023-11-21T23:18:32;6.80;99.90
40960;DHT22;27842;52.272;8.052;2023-11-21T23:20:58;6.70;99.90
40960;DHT22;27842;52.272;8.052;2023-11-21T23:23:24;6.70;99.90
40960;DHT22;27842;52.272;8.052;2023-11-21T23:25:53;6.80;99.90
40960;DHT22;27842;52.272;8.052;2023-11-21T23:28:20;6.70;99.90
40960;DHT22;27842;52.272;8.052;2023-11-21T23:30:47;6.70;99.90
40960;DHT22;27842;52.272;8.052;2023-11-21T23:33:16;6.70;99.90
40960;DHT22;27842;52.272;8.052;2023-11-21T23:35:42;6.70;99.90
40960;DHT22;27842;52.272;8.052;2023-11-21T23:38:08;6.70;99.90
40960;DHT22;27842;52.272;8.052;2023-11-21T23:40:34;6.60;99.90
40960;DHT22;27842;52.272;8.052;2023-11-21T23:43:00;6.70;99.90
40960;DHT22;27842;52.272;8.052;2023-11-21T23:45:26;6.70;99.90
40960;DHT22;27842;52.272;8.052;2023-11-21T23:47:52;6.70;99.90
40960;DHT22;27842;52.272;8.052;2023-11-21T23:50:18;6.70;99.90
40960;DHT22;27842;52.272;8.052;2023-11-21T23:52:46;6.70;99.90
40960;DHT22;27842;52.272;8.052;2023-11-21T23:55:12;6.70;99.90
40960;DHT22;27842;52.272;8.052;2023-11-21T23:57:38;6.60;99.90
